createdAt,value
2023-03-12T00:01:14.780Z,4.53
2023-03-12T00:03:50.986Z,5.35
2023-03-12T00:06:23.807Z,5.80
2023-03-12T00:08:56.475Z,5.32
2023-03-12T00:11:29.550Z,7.32
2023-03-12T00:14:01.860Z,5.70
2023-03-12T00:16:34.054Z,5.88
2023-03-12T00:19:06.260Z,6.05
2023-03-12T00:21:38.570Z,5.38
2023-03-12T00:24:10.803Z,5.72
2023-03-12T00:26:43.411Z,4.97
2023-03-12T00:29:15.558Z,4.75
2023-03-12T00:31:47.916Z,5.32
2023-03-12T00:34:22.318Z,5.10
2023-03-12T00:36:54.329Z,5.60
2023-03-12T00:39:26.374Z,4.88
2023-03-12T00:41:58.550Z,5.13
2023-03-12T00:44:31.010Z,6.32
2023-03-12T00:47:03.167Z,5.10
2023-03-12T00:49:35.740Z,5.00
2023-03-12T00:52:07.901Z,6.00
2023-03-12T00:54:40.001Z,7.00
2023-03-12T00:57:12.157Z,6.47
2023-03-12T00:59:44.218Z,6.03
2023-03-12T01:02:16.744Z,6.03
2023-03-12T01:04:48.823Z,6.80
2023-03-12T01:07:21.057Z,6.28
2023-03-12T01:09:53.010Z,6.20
2023-03-12T01:12:25.483Z,6.43
2023-03-12T01:14:57.766Z,7.53
2023-03-12T01:17:29.878Z,6.05
2023-03-12T01:20:01.868Z,6.85
2023-03-12T01:22:35.700Z,6.28
2023-03-12T01:25:08.329Z,6.57
2023-03-12T01:27:40.984Z,5.65
2023-03-12T01:30:13.259Z,7.05
2023-03-12T01:32:45.713Z,6.18
2023-03-12T01:35:18.361Z,6.78
2023-03-12T01:37:50.688Z,6.65
2023-03-12T01:40:29.005Z,7.00
2023-03-12T01:43:38.347Z,6.70
2023-03-12T01:46:16.640Z,6.45
2023-03-12T01:49:12.596Z,6.80
2023-03-12T01:52:05.851Z,7.38
2023-03-12T01:54:48.065Z,6.47
2023-03-12T01:57:49.000Z,7.05
2023-03-12T02:00:25.939Z,7.75
2023-03-12T02:03:04.664Z,7.35
2023-03-12T02:05:55.262Z,7.80
2023-03-12T02:08:37.193Z,7.30
2023-03-12T02:11:13.138Z,7.68
2023-03-12T02:13:45.379Z,7.53
2023-03-12T02:16:17.680Z,8.80
2023-03-12T02:18:52.841Z,7.90
2023-03-12T02:21:29.134Z,7.70
2023-03-12T02:24:19.539Z,7.65
2023-03-12T02:27:08.110Z,7.05
2023-03-12T02:29:43.439Z,7.60
2023-03-12T02:32:28.350Z,7.68
2023-03-12T02:35:07.037Z,7.72
2023-03-12T02:37:51.051Z,7.30
2023-03-12T02:40:37.082Z,7.95
2023-03-12T02:43:13.340Z,6.82
2023-03-12T02:45:52.397Z,7.30
2023-03-12T02:48:24.934Z,7.63
2023-03-12T02:50:56.912Z,8.27
2023-03-12T02:53:29.444Z,7.78
2023-03-12T02:56:01.829Z,7.45
2023-03-12T02:58:34.557Z,7.68
2023-03-12T03:01:08.248Z,7.70
2023-03-12T03:03:40.271Z,7.75
2023-03-12T03:06:12.811Z,7.47
2023-03-12T03:08:45.240Z,8.38
2023-03-12T03:11:17.451Z,8.30
2023-03-12T03:13:50.116Z,7.32
2023-03-12T03:16:23.576Z,8.30
2023-03-12T03:18:56.005Z,7.85
2023-03-12T03:21:28.316Z,8.65
2023-03-12T03:24:00.416Z,8.50
2023-03-12T03:26:32.575Z,8.25
2023-03-12T03:29:04.988Z,8.23
2023-03-12T03:31:37.014Z,8.55
2023-03-12T03:34:09.061Z,8.25
2023-03-12T03:36:41.115Z,8.95
2023-03-12T03:39:13.212Z,9.82
2023-03-12T03:41:47.240Z,9.80
2023-03-12T03:44:19.489Z,8.40
2023-03-12T03:46:55.434Z,9.40
2023-03-12T03:49:27.614Z,8.35
2023-03-12T03:51:59.599Z,9.60
2023-03-12T03:54:31.652Z,8.48
2023-03-12T03:57:04.977Z,8.35
2023-03-12T03:59:37.049Z,7.93
2023-03-12T04:02:09.157Z,7.90
2023-03-12T04:04:41.232Z,9.25
2023-03-12T04:07:13.336Z,8.35
2023-03-12T04:09:45.605Z,9.07
2023-03-12T04:12:18.701Z,8.10
2023-03-12T04:14:51.257Z,8.85
2023-03-12T04:17:23.699Z,8.50
2023-03-12T04:19:55.811Z,7.20
2023-03-12T04:22:28.060Z,8.15
2023-03-12T04:25:00.293Z,7.80
2023-03-12T04:27:32.576Z,8.25
2023-03-12T04:30:05.814Z,8.18
2023-03-12T04:32:38.815Z,8.40
2023-03-12T04:35:10.870Z,8.20
2023-03-12T04:37:43.126Z,8.38
2023-03-12T04:40:15.542Z,8.60
2023-03-12T04:42:50.084Z,7.95
2023-03-12T04:45:22.134Z,8.15
2023-03-12T04:47:54.197Z,7.97
2023-03-12T04:50:26.199Z,7.95
2023-03-12T04:52:58.288Z,8.07
2023-03-12T04:56:06.472Z,8.50
2023-03-12T04:58:38.943Z,8.18
2023-03-12T05:01:27.255Z,7.97
2023-03-12T05:04:02.818Z,8.00
2023-03-12T05:06:35.811Z,7.07
2023-03-12T05:09:08.400Z,7.97
2023-03-12T05:11:41.913Z,8.25
2023-03-12T05:14:16.736Z,7.53
2023-03-12T05:16:48.859Z,8.18
2023-03-12T05:19:20.996Z,8.32
2023-03-12T05:21:53.008Z,7.97
2023-03-12T05:24:25.040Z,7.00
2023-03-12T05:26:57.086Z,8.25
2023-03-12T05:29:35.263Z,8.02
2023-03-12T05:32:07.848Z,7.80
2023-03-12T05:34:39.869Z,7.80
2023-03-12T05:37:12.218Z,7.20
2023-03-12T05:39:46.853Z,8.13
2023-03-12T05:42:18.830Z,7.90
2023-03-12T05:44:51.521Z,7.25
2023-03-12T05:47:23.671Z,7.78
2023-03-12T05:49:55.794Z,7.00
2023-03-12T05:52:27.754Z,7.50
2023-03-12T05:54:59.753Z,8.07
2023-03-12T05:57:31.905Z,7.40
2023-03-12T06:00:05.871Z,8.00
2023-03-12T06:02:38.686Z,8.55
2023-03-12T06:05:12.488Z,7.68
2023-03-12T06:07:44.672Z,7.40
2023-03-12T06:10:16.987Z,7.78
2023-03-12T06:12:50.157Z,8.40
2023-03-12T06:15:22.249Z,7.65
2023-03-12T06:17:54.478Z,8.35
2023-03-12T06:20:26.596Z,7.82
2023-03-12T06:22:58.655Z,7.05
2023-03-12T06:25:30.685Z,7.88
2023-03-12T06:28:02.712Z,7.25
2023-03-12T06:30:34.925Z,7.90
2023-03-12T06:33:09.018Z,7.13
2023-03-12T06:35:41.963Z,6.97
2023-03-12T06:38:14.241Z,7.68
2023-03-12T06:41:13.869Z,7.45
2023-03-12T06:43:47.886Z,7.65
2023-03-12T06:46:21.954Z,7.78
2023-03-12T06:48:56.153Z,7.07
2023-03-12T06:51:28.320Z,7.75
2023-03-12T06:54:02.480Z,8.05
2023-03-12T06:56:34.683Z,7.88
2023-03-12T06:59:06.864Z,7.40
2023-03-12T07:01:39.149Z,8.23
2023-03-12T07:04:11.752Z,7.43
2023-03-12T07:06:44.176Z,7.50
2023-03-12T07:09:21.134Z,8.88
2023-03-12T07:11:53.114Z,7.43
2023-03-12T07:14:25.150Z,8.30
2023-03-12T07:16:58.006Z,8.48
2023-03-12T07:19:32.680Z,8.43
2023-03-12T07:22:04.759Z,8.23
2023-03-12T07:24:36.917Z,7.82
2023-03-12T07:27:11.200Z,8.55
2023-03-12T07:29:43.670Z,8.73
2023-03-12T07:32:15.881Z,8.30
2023-03-12T07:34:48.053Z,7.70
2023-03-12T07:37:20.183Z,8.23
2023-03-12T07:39:58.792Z,9.18
2023-03-12T07:42:30.831Z,8.25
2023-03-12T07:45:04.312Z,9.10
2023-03-12T07:47:37.432Z,8.57
2023-03-12T07:50:10.404Z,7.40
2023-03-12T07:52:43.214Z,8.25
2023-03-12T07:55:16.523Z,8.25
2023-03-12T07:57:49.276Z,9.95
2023-03-12T08:00:21.825Z,10.07
2023-03-12T08:03:09.396Z,9.60
2023-03-12T08:05:42.132Z,8.07
2023-03-12T08:08:14.307Z,9.10
2023-03-12T08:10:47.726Z,8.80
2023-03-12T08:13:19.936Z,9.10
2023-03-12T08:15:54.454Z,8.25
2023-03-12T08:18:27.253Z,8.43
2023-03-12T08:20:59.452Z,8.30
2023-03-12T08:23:31.458Z,7.90
2023-03-12T08:26:04.056Z,8.15
2023-03-12T08:28:36.192Z,7.93
2023-03-12T08:31:09.552Z,8.05
2023-03-12T08:33:43.624Z,8.18
2023-03-12T08:36:18.046Z,8.60
2023-03-12T08:38:50.474Z,7.95
2023-03-12T08:41:22.555Z,8.30
2023-03-12T08:43:55.046Z,8.45
2023-03-12T08:46:27.419Z,8.93
2023-03-12T08:49:00.466Z,8.75
2023-03-12T08:51:32.439Z,8.57
2023-03-12T08:54:05.672Z,8.75
2023-03-12T08:56:41.916Z,8.65
2023-03-12T08:59:14.796Z,8.27
2023-03-12T09:01:46.959Z,9.65
2023-03-12T09:04:19.969Z,9.85
2023-03-12T09:06:52.048Z,9.60
2023-03-12T09:09:24.196Z,9.43
2023-03-12T09:11:56.841Z,9.80
2023-03-12T09:15:01.605Z,9.57
2023-03-12T09:17:22.197Z,9.23
2023-03-12T09:19:54.503Z,9.45
2023-03-12T09:22:28.794Z,9.88
2023-03-12T09:25:01.203Z,9.05
2023-03-12T09:27:40.016Z,10.10
2023-03-12T09:30:17.702Z,9.85
2023-03-12T09:32:52.076Z,9.25
2023-03-12T09:35:24.448Z,9.02
2023-03-12T09:37:56.798Z,8.77
2023-03-12T09:40:32.615Z,9.50
2023-03-12T09:43:30.339Z,8.57
2023-03-12T09:46:25.339Z,9.52
2023-03-12T09:49:11.059Z,10.50
2023-03-12T09:52:13.188Z,9.73
2023-03-12T09:55:16.102Z,8.18
2023-03-12T09:57:52.392Z,9.73
2023-03-12T10:00:31.393Z,8.23
2023-03-12T10:03:09.782Z,9.38
2023-03-12T10:06:05.243Z,9.13
2023-03-12T10:08:53.960Z,8.77
2023-03-12T10:12:20.047Z,8.60
2023-03-12T10:15:34.321Z,7.93
2023-03-12T10:18:49.122Z,8.63
2023-03-12T10:21:41.041Z,9.93
2023-03-12T10:25:04.209Z,9.52
2023-03-12T10:28:02.527Z,9.55
2023-03-12T10:31:22.157Z,7.65
2023-03-12T10:34:02.124Z,7.80
2023-03-12T10:36:46.049Z,8.98
2023-03-12T10:39:20.214Z,7.82
2023-03-12T10:41:53.280Z,6.68
2023-03-12T10:44:27.896Z,3.20
2023-03-12T10:47:24.946Z,3.20
2023-03-12T10:50:28.626Z,2.90
2023-03-12T10:53:13.171Z,3.05
2023-03-12T10:55:59.652Z,2.50
2023-03-12T10:58:42.637Z,2.60
2023-03-12T11:01:27.084Z,2.60
2023-03-12T11:04:44.129Z,2.85
2023-03-12T11:07:31.859Z,3.00
2023-03-12T11:10:08.680Z,2.58
2023-03-12T11:12:59.749Z,2.38
2023-03-12T11:15:36.754Z,2.90
2023-03-12T11:18:26.481Z,2.10
2023-03-12T11:21:11.355Z,2.50
2023-03-12T11:23:57.374Z,2.65
2023-03-12T11:27:04.977Z,1.98
2023-03-12T11:29:57.291Z,2.95
2023-03-12T11:32:35.853Z,2.60
2023-03-12T11:35:16.472Z,2.33
2023-03-12T11:38:16.370Z,2.25
2023-03-12T11:41:32.115Z,1.92
2023-03-12T11:44:36.040Z,2.00
2023-03-12T11:47:27.768Z,2.10
2023-03-12T11:50:33.082Z,2.78
2023-03-12T11:53:50.350Z,1.63
2023-03-12T11:56:52.155Z,1.85
2023-03-12T12:00:12.708Z,2.20
2023-03-12T12:03:05.137Z,1.83
2023-03-12T12:06:13.436Z,1.40
2023-03-12T12:09:39.209Z,2.03
2023-03-12T12:12:45.530Z,1.50
2023-03-12T12:16:09.613Z,1.90
2023-03-12T12:19:07.488Z,2.25
2023-03-12T12:22:09.926Z,1.88
2023-03-12T12:25:08.000Z,1.90
2023-03-12T12:28:38.243Z,1.95
2023-03-12T12:31:37.610Z,2.42
2023-03-12T12:34:54.671Z,2.03
2023-03-12T12:38:01.254Z,1.98
2023-03-12T12:40:42.095Z,2.50
2023-03-12T12:43:28.308Z,2.50
2023-03-12T12:46:21.225Z,3.10
2023-03-12T12:49:13.670Z,1.90
2023-03-12T12:52:08.211Z,2.45
2023-03-12T12:55:02.500Z,2.20
2023-03-12T12:57:59.511Z,2.55
2023-03-12T13:00:51.902Z,2.22
2023-03-12T13:03:29.428Z,2.47
2023-03-12T13:06:05.277Z,2.80
2023-03-12T13:08:43.064Z,2.13
2023-03-12T13:11:46.959Z,2.00
2023-03-12T13:14:34.586Z,2.88
2023-03-12T13:17:31.533Z,2.08
2023-03-12T13:20:21.074Z,2.05
2023-03-12T13:23:21.455Z,2.17
2023-03-12T13:26:41.575Z,2.30
2023-03-12T13:29:33.844Z,2.00
2023-03-12T13:32:38.493Z,1.80
2023-03-12T13:35:38.935Z,2.38
2023-03-12T13:38:18.177Z,2.00
2023-03-12T13:41:08.240Z,2.40
2023-03-12T13:43:49.597Z,2.70
2023-03-12T13:46:45.093Z,1.88
2023-03-12T13:49:19.920Z,2.10
2023-03-12T13:52:20.986Z,2.90
2023-03-12T13:55:37.137Z,2.05
2023-03-12T13:58:23.714Z,2.30
2023-03-12T14:01:08.411Z,2.78
2023-03-12T14:03:56.598Z,2.00
2023-03-12T14:06:52.455Z,2.80
2023-03-12T14:09:55.345Z,2.30
2023-03-12T14:12:47.538Z,2.83
2023-03-12T14:16:13.987Z,2.67
2023-03-12T14:19:00.529Z,2.58
2023-03-12T14:21:40.021Z,2.50
2023-03-12T14:24:37.526Z,2.63
2023-03-12T14:27:24.612Z,3.30
2023-03-12T14:30:19.472Z,2.10
2023-03-12T14:33:04.031Z,2.22
2023-03-12T14:35:54.882Z,2.40
2023-03-12T14:38:46.508Z,2.97
2023-03-12T14:41:30.270Z,2.08
2023-03-12T14:44:34.169Z,2.60
2023-03-12T14:47:11.783Z,2.58
2023-03-12T14:49:48.715Z,2.78
2023-03-12T14:52:28.438Z,2.63
2023-03-12T14:55:05.501Z,1.92
2023-03-12T14:58:24.011Z,2.08
2023-03-12T15:01:04.868Z,2.25
2023-03-12T15:03:48.370Z,1.83
2023-03-12T15:06:36.983Z,2.33
2023-03-12T15:09:20.860Z,2.05
2023-03-12T15:12:02.457Z,2.17
2023-03-12T15:14:41.380Z,2.35
2023-03-12T15:17:17.630Z,2.20
2023-03-12T15:19:54.841Z,2.35
2023-03-12T15:22:29.557Z,2.40
2023-03-12T15:25:25.361Z,2.38
2023-03-12T15:28:15.686Z,2.40
2023-03-12T15:31:15.800Z,2.33
2023-03-12T15:34:01.667Z,2.25
2023-03-12T15:36:36.342Z,2.00
2023-03-12T15:39:29.981Z,1.85
2023-03-12T15:42:10.696Z,2.05
2023-03-12T15:44:49.567Z,2.13
2023-03-12T15:47:39.643Z,1.85
2023-03-12T15:50:31.331Z,1.92
2023-03-12T15:53:14.537Z,1.90
2023-03-12T15:56:16.637Z,2.00
2023-03-12T15:59:19.435Z,2.00
2023-03-12T16:01:57.376Z,1.92
2023-03-12T16:04:29.901Z,2.35
2023-03-12T16:07:03.697Z,1.75
2023-03-12T16:09:42.846Z,2.40
2023-03-12T16:12:15.845Z,1.90
2023-03-12T16:14:49.407Z,2.40
2023-03-12T16:17:24.150Z,2.38
2023-03-12T16:19:57.365Z,2.80
2023-03-12T16:22:30.194Z,2.20
2023-03-12T16:25:06.617Z,2.05
2023-03-12T16:27:49.671Z,3.05
2023-03-12T16:30:28.350Z,2.17
2023-03-12T16:33:08.959Z,2.70
2023-03-12T16:35:45.701Z,2.20
2023-03-12T16:38:18.360Z,2.22
2023-03-12T16:40:53.009Z,2.72
2023-03-12T16:43:29.501Z,2.33
2023-03-12T16:46:09.788Z,2.53
2023-03-12T16:48:50.224Z,2.83
2023-03-12T16:51:24.140Z,2.30
2023-03-12T16:54:09.774Z,2.50
2023-03-12T16:56:46.324Z,3.60
2023-03-12T16:59:28.485Z,2.38
2023-03-12T17:02:10.012Z,2.78
2023-03-12T17:04:47.530Z,2.45
2023-03-12T17:07:20.452Z,2.30
2023-03-12T17:09:53.564Z,2.40
2023-03-12T17:12:36.389Z,2.80
2023-03-12T17:15:23.339Z,3.40
2023-03-12T17:18:03.614Z,2.38
2023-03-12T17:20:36.973Z,3.35
2023-03-12T17:23:10.589Z,2.40
2023-03-12T17:25:44.889Z,2.40
2023-03-12T17:28:17.873Z,2.88
2023-03-12T17:30:50.801Z,3.03
2023-03-12T17:33:26.107Z,2.65
2023-03-12T17:36:08.204Z,2.70
2023-03-12T17:38:41.578Z,2.42
2023-03-12T17:41:26.037Z,2.78
2023-03-12T17:44:02.313Z,2.95
2023-03-12T17:46:40.557Z,3.83
2023-03-12T17:49:15.915Z,3.33
2023-03-12T17:51:49.092Z,3.30
2023-03-12T17:54:24.351Z,4.38
2023-03-12T17:56:58.222Z,3.58
2023-03-12T17:59:31.284Z,4.18
2023-03-12T18:02:04.408Z,3.35
2023-03-12T18:04:38.030Z,3.75
2023-03-12T18:07:10.798Z,4.72
2023-03-12T18:09:45.001Z,3.50
2023-03-12T18:12:18.093Z,4.70
2023-03-12T18:14:50.839Z,4.07
2023-03-12T18:17:23.847Z,3.38
2023-03-12T18:19:57.274Z,3.88
2023-03-12T18:22:30.303Z,3.55
2023-03-12T18:25:03.260Z,4.10
2023-03-12T18:27:37.565Z,3.58
2023-03-12T18:30:12.750Z,3.28
2023-03-12T18:32:45.886Z,3.88
2023-03-12T18:35:19.404Z,3.30
2023-03-12T18:37:53.689Z,4.32
2023-03-12T18:40:30.452Z,5.65
2023-03-12T18:43:05.407Z,6.35
2023-03-12T18:45:43.534Z,6.00
2023-03-12T18:48:17.430Z,4.85
2023-03-12T18:50:52.073Z,5.43
2023-03-12T18:53:26.475Z,4.40
2023-03-12T18:56:00.519Z,4.15
2023-03-12T18:58:34.936Z,4.82
2023-03-12T19:01:08.271Z,4.70
2023-03-12T19:03:43.738Z,4.00
2023-03-12T19:06:18.479Z,4.30
2023-03-12T19:08:52.314Z,3.03
2023-03-12T19:11:26.810Z,3.55
2023-03-12T19:14:02.594Z,3.53
2023-03-12T19:16:36.289Z,3.35
2023-03-12T19:19:10.414Z,3.47
2023-03-12T19:21:44.815Z,3.60
2023-03-12T19:24:19.244Z,3.83
2023-03-12T19:26:52.838Z,3.70
2023-03-12T19:29:26.680Z,3.78
2023-03-12T19:32:00.570Z,3.40
2023-03-12T19:34:34.865Z,4.22
2023-03-12T19:37:09.704Z,3.60
2023-03-12T19:39:43.945Z,3.85
2023-03-12T19:42:17.902Z,4.05
2023-03-12T19:44:52.462Z,3.40
2023-03-12T19:47:27.672Z,3.53
2023-03-12T19:50:01.889Z,3.13
2023-03-12T19:52:36.232Z,5.40
2023-03-12T19:55:12.717Z,3.65
2023-03-12T19:57:47.725Z,3.15
2023-03-12T20:00:23.023Z,3.70
2023-03-12T20:03:00.301Z,3.85
2023-03-12T20:05:34.933Z,3.28
2023-03-12T20:08:08.827Z,4.07
2023-03-12T20:10:44.982Z,3.50
2023-03-12T20:13:20.700Z,3.45
2023-03-12T20:15:55.294Z,3.90
2023-03-12T20:18:30.062Z,3.92
2023-03-12T20:21:04.708Z,3.30
2023-03-12T20:23:40.226Z,4.22
2023-03-12T20:26:18.471Z,3.47
2023-03-12T20:28:52.308Z,3.53
2023-03-12T20:31:26.155Z,3.15
2023-03-12T20:34:00.267Z,4.18
2023-03-12T20:36:35.023Z,4.38
2023-03-12T20:39:09.295Z,4.60
2023-03-12T20:41:44.260Z,4.10
2023-03-12T20:44:19.065Z,4.40
2023-03-12T20:46:52.817Z,4.30
2023-03-12T20:49:28.946Z,4.05
2023-03-12T20:52:02.807Z,3.38
2023-03-12T20:54:36.762Z,4.20
2023-03-12T20:57:12.023Z,3.08
2023-03-12T20:59:45.698Z,2.90
2023-03-12T21:02:20.693Z,3.58
2023-03-12T21:04:54.631Z,3.17
2023-03-12T21:07:27.797Z,2.67
2023-03-12T21:10:01.874Z,3.70
2023-03-12T21:12:35.444Z,4.85
2023-03-12T21:15:13.093Z,4.07
2023-03-12T21:17:47.525Z,4.30
2023-03-12T21:20:42.034Z,4.00
2023-03-12T21:23:16.662Z,3.95
2023-03-12T21:25:57.499Z,3.80
2023-03-12T21:28:34.230Z,4.40
2023-03-12T21:31:13.097Z,4.50
2023-03-12T21:33:47.439Z,4.20
2023-03-12T21:36:20.941Z,4.50
2023-03-12T21:38:54.336Z,4.10
2023-03-12T21:41:27.673Z,4.50
2023-03-12T21:44:02.946Z,5.43
2023-03-12T21:46:36.914Z,4.32
2023-03-12T21:49:09.618Z,4.32
2023-03-12T21:51:42.809Z,3.47
2023-03-12T21:54:16.086Z,3.80
2023-03-12T21:56:49.939Z,4.03
2023-03-12T21:59:22.430Z,3.90
2023-03-12T22:01:56.713Z,2.80
2023-03-12T22:04:29.631Z,3.22
2023-03-12T22:07:03.340Z,3.03
2023-03-12T22:10:00.875Z,3.30
2023-03-12T22:12:34.852Z,3.25
2023-03-12T22:15:08.198Z,3.38
2023-03-12T22:17:41.129Z,3.50
2023-03-12T22:20:13.711Z,4.30
2023-03-12T22:22:46.426Z,3.78
2023-03-12T22:25:18.978Z,3.50
2023-03-12T22:27:51.724Z,3.80
2023-03-12T22:30:24.322Z,4.47
2023-03-12T22:32:56.721Z,3.97
2023-03-12T22:35:29.233Z,3.30
2023-03-12T22:38:01.689Z,3.58
2023-03-12T22:40:34.525Z,3.80
2023-03-12T22:43:07.205Z,3.63
2023-03-12T22:45:40.030Z,3.60
2023-03-12T22:48:12.687Z,3.55
2023-03-12T22:50:44.836Z,3.95
2023-03-12T22:53:24.772Z,3.08
2023-03-12T22:56:09.102Z,3.22
2023-03-12T22:58:43.091Z,4.93
2023-03-12T23:01:18.351Z,4.05
2023-03-12T23:03:52.697Z,4.93
2023-03-12T23:06:26.861Z,3.72
2023-03-12T23:09:01.341Z,3.42
2023-03-12T23:11:34.096Z,4.43
2023-03-12T23:14:07.610Z,4.03
2023-03-12T23:16:39.811Z,3.65
2023-03-12T23:19:12.040Z,3.95
2023-03-12T23:21:44.385Z,4.32
2023-03-12T23:24:34.048Z,3.60
2023-03-12T23:27:07.006Z,3.53
2023-03-12T23:29:39.164Z,3.95
2023-03-12T23:32:11.271Z,3.97
2023-03-12T23:34:44.112Z,3.88
2023-03-12T23:37:16.406Z,3.70
2023-03-12T23:39:54.942Z,4.03
2023-03-12T23:42:28.090Z,4.10
2023-03-12T23:45:00.130Z,3.88
2023-03-12T23:47:32.235Z,4.40
2023-03-12T23:50:05.367Z,3.85
2023-03-12T23:52:37.779Z,3.65
2023-03-12T23:55:10.182Z,4.25
2023-03-12T23:57:42.623Z,4.00
